sensor_id;sensor_type;location;lat;lon;timestamp;P1;durP1;ratioP1;P2;durP2;ratioP2
69910;SDS011;63555;49.920;17.868;2023-06-14T00:00:08;7.70;;;3.00;;
69910;SDS011;63555;49.920;17.868;2023-06-14T00:05:09;6.07;;;3.03;;
69910;SDS011;63555;49.920;17.868;2023-06-14T00:10:12;7.22;;;3.40;;
69910;SDS011;63555;49.920;17.868;2023-06-14T00:15:12;4.97;;;3.10;;
69910;SDS011;63555;49.920;17.868;2023-06-14T00:20:12;6.73;;;3.43;;
69910;SDS011;63555;49.920;17.868;2023-06-14T00:25:13;6.07;;;3.10;;
69910;SDS011;63555;49.920;17.868;2023-06-14T00:30:13;5.73;;;3.33;;
69910;SDS011;63555;49.920;17.868;2023-06-14T00:35:14;6.17;;;3.07;;
69910;SDS011;63555;49.920;17.868;2023-06-14T00:40:15;6.87;;;3.07;;
69910;SDS011;63555;49.920;17.868;2023-06-14T00:45:15;5.60;;;3.00;;
69910;SDS011;63555;49.920;17.868;2023-06-14T00:50:15;5.40;;;3.30;;
69910;SDS011;63555;49.920;17.868;2023-06-14T00:55:16;4.55;;;2.67;;
69910;SDS011;63555;49.920;17.868;2023-06-14T01:00:16;6.57;;;3.65;;
69910;SDS011;63555;49.920;17.868;2023-06-14T01:05:17;7.03;;;3.15;;
69910;SDS011;63555;49.920;17.868;2023-06-14T01:15:32;5.65;;;3.20;;
69910;SDS011;63555;49.920;17.868;2023-06-14T01:20:34;9.63;;;3.20;;
69910;SDS011;63555;49.920;17.868;2023-06-14T01:25:37;6.47;;;3.55;;
69910;SDS011;63555;49.920;17.868;2023-06-14T01:30:39;6.05;;;3.35;;
69910;SDS011;63555;49.920;17.868;2023-06-14T01:35:47;8.63;;;3.37;;
69910;SDS011;63555;49.920;17.868;2023-06-14T01:40:48;6.95;;;3.15;;
69910;SDS011;63555;49.920;17.868;2023-06-14T01:45:50;5.40;;;2.93;;
69910;SDS011;63555;49.920;17.868;2023-06-14T01:50:53;4.70;;;2.60;;
69910;SDS011;63555;49.920;17.868;2023-06-14T01:55:54;5.60;;;3.00;;
69910;SDS011;63555;49.920;17.868;2023-06-14T02:00:55;5.90;;;3.25;;
69910;SDS011;63555;49.920;17.868;2023-06-14T02:05:56;6.23;;;3.33;;
69910;SDS011;63555;49.920;17.868;2023-06-14T02:10:57;6.72;;;3.50;;
69910;SDS011;63555;49.920;17.868;2023-06-14T02:15:57;5.35;;;3.13;;
69910;SDS011;63555;49.920;17.868;2023-06-14T02:20:59;9.93;;;3.60;;
69910;SDS011;63555;49.920;17.868;2023-06-14T02:26:00;7.13;;;3.40;;
69910;SDS011;63555;49.920;17.868;2023-06-14T02:31:00;7.57;;;3.60;;
69910;SDS011;63555;49.920;17.868;2023-06-14T02:36:01;8.53;;;3.47;;
69910;SDS011;63555;49.920;17.868;2023-06-14T02:41:03;6.18;;;3.17;;
69910;SDS011;63555;49.920;17.868;2023-06-14T02:46:04;7.22;;;3.67;;
69910;SDS011;63555;49.920;17.868;2023-06-14T02:51:04;7.38;;;3.90;;
69910;SDS011;63555;49.920;17.868;2023-06-14T02:56:06;10.25;;;3.83;;
69910;SDS011;63555;49.920;17.868;2023-06-14T03:01:06;7.00;;;4.13;;
69910;SDS011;63555;49.920;17.868;2023-06-14T03:06:07;6.77;;;4.07;;
69910;SDS011;63555;49.920;17.868;2023-06-14T03:11:08;9.53;;;4.30;;
69910;SDS011;63555;49.920;17.868;2023-06-14T03:16:11;10.40;;;4.40;;
69910;SDS011;63555;49.920;17.868;2023-06-14T03:21:11;8.13;;;3.93;;
69910;SDS011;63555;49.920;17.868;2023-06-14T03:26:11;7.50;;;3.77;;
69910;SDS011;63555;49.920;17.868;2023-06-14T03:31:14;6.50;;;4.17;;
69910;SDS011;63555;49.920;17.868;2023-06-14T03:36:16;9.73;;;4.50;;
69910;SDS011;63555;49.920;17.868;2023-06-14T03:41:17;10.85;;;4.57;;
69910;SDS011;63555;49.920;17.868;2023-06-14T03:46:18;7.33;;;3.93;;
69910;SDS011;63555;49.920;17.868;2023-06-14T03:51:18;7.77;;;4.23;;
69910;SDS011;63555;49.920;17.868;2023-06-14T03:56:18;6.43;;;4.20;;
69910;SDS011;63555;49.920;17.868;2023-06-14T04:01:19;6.80;;;4.15;;
69910;SDS011;63555;49.920;17.868;2023-06-14T04:06:20;8.20;;;4.35;;
69910;SDS011;63555;49.920;17.868;2023-06-14T04:11:20;8.03;;;4.17;;
69910;SDS011;63555;49.920;17.868;2023-06-14T04:16:20;8.77;;;4.63;;
69910;SDS011;63555;49.920;17.868;2023-06-14T04:21:21;7.93;;;4.43;;
69910;SDS011;63555;49.920;17.868;2023-06-14T04:26:23;10.87;;;4.50;;
69910;SDS011;63555;49.920;17.868;2023-06-14T04:31:23;14.03;;;4.83;;
69910;SDS011;63555;49.920;17.868;2023-06-14T04:36:25;9.77;;;4.55;;
69910;SDS011;63555;49.920;17.868;2023-06-14T04:41:27;8.70;;;4.30;;
69910;SDS011;63555;49.920;17.868;2023-06-14T04:46:28;9.23;;;5.03;;
69910;SDS011;63555;49.920;17.868;2023-06-14T04:51:30;8.93;;;4.53;;
69910;SDS011;63555;49.920;17.868;2023-06-14T04:56:31;10.53;;;5.43;;
69910;SDS011;63555;49.920;17.868;2023-06-14T05:01:32;10.10;;;5.20;;
69910;SDS011;63555;49.920;17.868;2023-06-14T05:06:33;11.07;;;5.18;;
69910;SDS011;63555;49.920;17.868;2023-06-14T05:11:33;13.57;;;5.87;;
69910;SDS011;63555;49.920;17.868;2023-06-14T05:16:33;13.73;;;6.70;;
69910;SDS011;63555;49.920;17.868;2023-06-14T05:21:34;25.37;;;9.17;;
69910;SDS011;63555;49.920;17.868;2023-06-14T05:26:34;26.73;;;10.50;;
69910;SDS011;63555;49.920;17.868;2023-06-14T05:31:35;26.60;;;10.70;;
69910;SDS011;63555;49.920;17.868;2023-06-14T05:36:35;28.80;;;11.00;;
69910;SDS011;63555;49.920;17.868;2023-06-14T05:41:36;27.95;;;11.88;;
69910;SDS011;63555;49.920;17.868;2023-06-14T05:46:37;27.00;;;11.37;;
69910;SDS011;63555;49.920;17.868;2023-06-14T05:51:39;31.83;;;14.13;;
69910;SDS011;63555;49.920;17.868;2023-06-14T05:56:40;33.63;;;15.00;;
69910;SDS011;63555;49.920;17.868;2023-06-14T06:01:40;27.40;;;13.67;;
69910;SDS011;63555;49.920;17.868;2023-06-14T06:06:41;27.63;;;12.83;;
69910;SDS011;63555;49.920;17.868;2023-06-14T06:11:41;34.20;;;13.77;;
69910;SDS011;63555;49.920;17.868;2023-06-14T06:16:42;27.37;;;13.60;;
69910;SDS011;63555;49.920;17.868;2023-06-14T06:21:42;28.50;;;14.30;;
69910;SDS011;63555;49.920;17.868;2023-06-14T06:26:42;30.67;;;15.40;;
69910;SDS011;63555;49.920;17.868;2023-06-14T06:31:43;31.47;;;14.10;;
69910;SDS011;63555;49.920;17.868;2023-06-14T06:36:43;29.37;;;14.47;;
69910;SDS011;63555;49.920;17.868;2023-06-14T06:41:43;39.37;;;17.63;;
69910;SDS011;63555;49.920;17.868;2023-06-14T06:46:44;34.23;;;16.70;;
69910;SDS011;63555;49.920;17.868;2023-06-14T06:51:53;36.37;;;16.93;;
69910;SDS011;63555;49.920;17.868;2023-06-14T06:56:59;34.20;;;15.85;;
69910;SDS011;63555;49.920;17.868;2023-06-14T07:02:04;34.70;;;16.85;;
69910;SDS011;63555;49.920;17.868;2023-06-14T07:07:05;33.00;;;16.03;;
69910;SDS011;63555;49.920;17.868;2023-06-14T07:12:08;28.43;;;13.77;;
69910;SDS011;63555;49.920;17.868;2023-06-14T07:17:08;31.15;;;16.35;;
69910;SDS011;63555;49.920;17.868;2023-06-14T07:22:09;26.60;;;14.67;;
69910;SDS011;63555;49.920;17.868;2023-06-14T07:27:10;25.63;;;13.20;;
69910;SDS011;63555;49.920;17.868;2023-06-14T07:32:10;24.38;;;13.40;;
69910;SDS011;63555;49.920;17.868;2023-06-14T07:37:11;22.57;;;12.30;;
69910;SDS011;63555;49.920;17.868;2023-06-14T07:42:11;17.87;;;9.97;;
69910;SDS011;63555;49.920;17.868;2023-06-14T07:47:12;20.23;;;9.47;;
69910;SDS011;63555;49.920;17.868;2023-06-14T07:52:12;19.70;;;9.70;;
69910;SDS011;63555;49.920;17.868;2023-06-14T07:57:13;17.08;;;8.68;;
69910;SDS011;63555;49.920;17.868;2023-06-14T08:02:14;14.30;;;7.80;;
69910;SDS011;63555;49.920;17.868;2023-06-14T08:07:14;12.00;;;6.53;;
69910;SDS011;63555;49.920;17.868;2023-06-14T08:12:15;10.97;;;5.83;;
69910;SDS011;63555;49.920;17.868;2023-06-14T08:17:15;12.27;;;6.90;;
69910;SDS011;63555;49.920;17.868;2023-06-14T08:22:15;10.80;;;7.13;;
69910;SDS011;63555;49.920;17.868;2023-06-14T08:27:16;11.50;;;6.57;;
69910;SDS011;63555;49.920;17.868;2023-06-14T08:32:17;10.33;;;5.63;;
69910;SDS011;63555;49.920;17.868;2023-06-14T08:37:17;11.37;;;6.60;;
69910;SDS011;63555;49.920;17.868;2023-06-14T08:42:18;10.50;;;6.50;;
69910;SDS011;63555;49.920;17.868;2023-06-14T08:47:21;10.88;;;6.10;;
69910;SDS011;63555;49.920;17.868;2023-06-14T08:52:26;11.37;;;6.23;;
69910;SDS011;63555;49.920;17.868;2023-06-14T08:57:33;10.88;;;6.57;;
69910;SDS011;63555;49.920;17.868;2023-06-14T09:02:37;9.10;;;5.30;;
69910;SDS011;63555;49.920;17.868;2023-06-14T09:07:44;8.27;;;4.72;;
69910;SDS011;63555;49.920;17.868;2023-06-14T09:12:44;10.52;;;5.15;;
69910;SDS011;63555;49.920;17.868;2023-06-14T09:17:45;8.20;;;5.53;;
69910;SDS011;63555;49.920;17.868;2023-06-14T09:22:45;7.63;;;5.10;;
69910;SDS011;63555;49.920;17.868;2023-06-14T09:27:46;7.80;;;4.67;;
69910;SDS011;63555;49.920;17.868;2023-06-14T09:32:47;7.95;;;4.57;;
69910;SDS011;63555;49.920;17.868;2023-06-14T09:37:47;8.53;;;5.13;;
69910;SDS011;63555;49.920;17.868;2023-06-14T09:42:47;8.33;;;5.20;;
69910;SDS011;63555;49.920;17.868;2023-06-14T09:47:49;10.30;;;5.40;;
69910;SDS011;63555;49.920;17.868;2023-06-14T09:52:50;9.30;;;5.13;;
69910;SDS011;63555;49.920;17.868;2023-06-14T09:57:52;9.20;;;5.23;;
69910;SDS011;63555;49.920;17.868;2023-06-14T10:02:56;7.55;;;5.03;;
69910;SDS011;63555;49.920;17.868;2023-06-14T10:08:10;10.80;;;5.30;;
69910;SDS011;63555;49.920;17.868;2023-06-14T10:13:17;9.43;;;5.63;;
69910;SDS011;63555;49.920;17.868;2023-06-14T10:23:22;11.35;;;5.45;;
69910;SDS011;63555;49.920;17.868;2023-06-14T10:28:24;10.10;;;5.57;;
69910;SDS011;63555;49.920;17.868;2023-06-14T10:33:25;9.60;;;5.70;;
69910;SDS011;63555;49.920;17.868;2023-06-14T10:38:30;12.23;;;5.70;;
69910;SDS011;63555;49.920;17.868;2023-06-14T10:43:32;11.30;;;6.30;;
69910;SDS011;63555;49.920;17.868;2023-06-14T10:48:33;10.80;;;5.93;;
69910;SDS011;63555;49.920;17.868;2023-06-14T10:53:40;10.77;;;6.20;;
69910;SDS011;63555;49.920;17.868;2023-06-14T10:58:41;9.93;;;6.22;;
69910;SDS011;63555;49.920;17.868;2023-06-14T11:03:43;13.70;;;6.67;;
69910;SDS011;63555;49.920;17.868;2023-06-14T11:14:19;10.67;;;6.37;;
69910;SDS011;63555;49.920;17.868;2023-06-14T11:19:19;10.82;;;6.35;;
69910;SDS011;63555;49.920;17.868;2023-06-14T11:24:21;10.97;;;6.23;;
69910;SDS011;63555;49.920;17.868;2023-06-14T11:29:22;11.60;;;5.90;;
69910;SDS011;63555;49.920;17.868;2023-06-14T11:34:22;12.50;;;6.00;;
69910;SDS011;63555;49.920;17.868;2023-06-14T11:39:25;10.93;;;5.77;;
69910;SDS011;63555;49.920;17.868;2023-06-14T11:44:27;11.75;;;5.97;;
69910;SDS011;63555;49.920;17.868;2023-06-14T11:49:28;9.07;;;5.83;;
69910;SDS011;63555;49.920;17.868;2023-06-14T11:54:28;9.40;;;6.07;;
69910;SDS011;63555;49.920;17.868;2023-06-14T11:59:28;10.32;;;6.68;;
69910;SDS011;63555;49.920;17.868;2023-06-14T12:04:31;8.83;;;5.33;;
69910;SDS011;63555;49.920;17.868;2023-06-14T12:09:31;8.57;;;4.70;;
69910;SDS011;63555;49.920;17.868;2023-06-14T12:14:32;8.38;;;4.82;;
69910;SDS011;63555;49.920;17.868;2023-06-14T12:19:33;9.00;;;4.60;;
69910;SDS011;63555;49.920;17.868;2023-06-14T12:24:44;7.95;;;4.40;;
69910;SDS011;63555;49.920;17.868;2023-06-14T12:29:45;8.20;;;5.17;;
69910;SDS011;63555;49.920;17.868;2023-06-14T12:34:45;8.47;;;4.83;;
69910;SDS011;63555;49.920;17.868;2023-06-14T12:39:46;6.93;;;4.73;;
69910;SDS011;63555;49.920;17.868;2023-06-14T12:44:46;8.30;;;4.73;;
69910;SDS011;63555;49.920;17.868;2023-06-14T12:49:47;7.53;;;4.90;;
69910;SDS011;63555;49.920;17.868;2023-06-14T12:54:47;7.27;;;4.87;;
69910;SDS011;63555;49.920;17.868;2023-06-14T12:59:47;7.63;;;5.47;;
69910;SDS011;63555;49.920;17.868;2023-06-14T13:04:48;7.87;;;4.73;;
69910;SDS011;63555;49.920;17.868;2023-06-14T13:09:48;8.93;;;4.37;;
69910;SDS011;63555;49.920;17.868;2023-06-14T13:14:48;7.90;;;4.90;;
69910;SDS011;63555;49.920;17.868;2023-06-14T13:19:49;8.45;;;5.10;;
69910;SDS011;63555;49.920;17.868;2023-06-14T13:24:50;8.13;;;5.50;;
69910;SDS011;63555;49.920;17.868;2023-06-14T13:29:50;10.20;;;6.03;;
69910;SDS011;63555;49.920;17.868;2023-06-14T13:34:50;7.77;;;5.00;;
69910;SDS011;63555;49.920;17.868;2023-06-14T13:39:51;8.57;;;5.20;;
69910;SDS011;63555;49.920;17.868;2023-06-14T13:44:51;9.13;;;5.37;;
69910;SDS011;63555;49.920;17.868;2023-06-14T13:49:52;8.70;;;5.07;;
69910;SDS011;63555;49.920;17.868;2023-06-14T13:54:52;9.27;;;5.20;;
69910;SDS011;63555;49.920;17.868;2023-06-14T13:59:53;10.27;;;5.20;;
69910;SDS011;63555;49.920;17.868;2023-06-14T14:04:55;8.30;;;4.28;;
69910;SDS011;63555;49.920;17.868;2023-06-14T14:09:57;7.20;;;4.85;;
69910;SDS011;63555;49.920;17.868;2023-06-14T14:14:57;5.33;;;3.87;;
69910;SDS011;63555;49.920;17.868;2023-06-14T14:19:58;6.33;;;3.70;;
69910;SDS011;63555;49.920;17.868;2023-06-14T14:24:58;5.27;;;3.70;;
69910;SDS011;63555;49.920;17.868;2023-06-14T14:29:58;5.85;;;3.70;;
69910;SDS011;63555;49.920;17.868;2023-06-14T14:34:59;5.90;;;3.55;;
69910;SDS011;63555;49.920;17.868;2023-06-14T14:39:59;5.50;;;3.40;;
69910;SDS011;63555;49.920;17.868;2023-06-14T14:44:59;5.07;;;3.40;;
69910;SDS011;63555;49.920;17.868;2023-06-14T14:50:00;6.23;;;2.70;;
69910;SDS011;63555;49.920;17.868;2023-06-14T14:55:01;4.53;;;3.37;;
69910;SDS011;63555;49.920;17.868;2023-06-14T15:00:02;6.13;;;3.23;;
69910;SDS011;63555;49.920;17.868;2023-06-14T15:05:06;11.63;;;3.70;;
69910;SDS011;63555;49.920;17.868;2023-06-14T15:10:07;5.67;;;3.43;;
69910;SDS011;63555;49.920;17.868;2023-06-14T15:15:08;6.38;;;3.45;;
69910;SDS011;63555;49.920;17.868;2023-06-14T15:20:09;5.97;;;4.30;;
69910;SDS011;63555;49.920;17.868;2023-06-14T15:25:12;8.23;;;4.60;;
69910;SDS011;63555;49.920;17.868;2023-06-14T15:30:13;5.43;;;4.13;;
69910;SDS011;63555;49.920;17.868;2023-06-14T15:35:15;4.87;;;4.03;;
69910;SDS011;63555;49.920;17.868;2023-06-14T15:40:16;4.95;;;3.40;;
69910;SDS011;63555;49.920;17.868;2023-06-14T15:45:17;5.43;;;3.43;;
69910;SDS011;63555;49.920;17.868;2023-06-14T15:50:17;3.93;;;2.50;;
69910;SDS011;63555;49.920;17.868;2023-06-14T15:55:18;4.97;;;2.80;;
69910;SDS011;63555;49.920;17.868;2023-06-14T16:00:19;3.53;;;2.25;;
69910;SDS011;63555;49.920;17.868;2023-06-14T16:05:20;4.50;;;2.27;;
69910;SDS011;63555;49.920;17.868;2023-06-14T16:10:21;2.97;;;1.87;;
69910;SDS011;63555;49.920;17.868;2023-06-14T16:15:21;3.30;;;1.73;;
69910;SDS011;63555;49.920;17.868;2023-06-14T16:20:21;5.90;;;2.10;;
69910;SDS011;63555;49.920;17.868;2023-06-14T16:25:22;5.40;;;1.90;;
69910;SDS011;63555;49.920;17.868;2023-06-14T16:30:22;3.13;;;1.40;;
69910;SDS011;63555;49.920;17.868;2023-06-14T16:35:22;2.73;;;1.20;;
69910;SDS011;63555;49.920;17.868;2023-06-14T16:40:23;2.60;;;0.93;;
69910;SDS011;63555;49.920;17.868;2023-06-14T16:45:23;2.40;;;1.00;;
69910;SDS011;63555;49.920;17.868;2023-06-14T16:50:24;5.22;;;1.67;;
69910;SDS011;63555;49.920;17.868;2023-06-14T16:55:24;5.18;;;1.67;;
69910;SDS011;63555;49.920;17.868;2023-06-14T17:00:24;3.67;;;1.67;;
69910;SDS011;63555;49.920;17.868;2023-06-14T17:05:25;4.87;;;2.03;;
69910;SDS011;63555;49.920;17.868;2023-06-14T17:10:26;3.87;;;2.40;;
69910;SDS011;63555;49.920;17.868;2023-06-14T17:15:26;7.22;;;2.90;;
69910;SDS011;63555;49.920;17.868;2023-06-14T17:20:27;6.70;;;3.70;;
69910;SDS011;63555;49.920;17.868;2023-06-14T17:25:27;7.23;;;4.00;;
69910;SDS011;63555;49.920;17.868;2023-06-14T17:30:29;7.50;;;4.07;;
69910;SDS011;63555;49.920;17.868;2023-06-14T17:35:30;8.38;;;4.63;;
69910;SDS011;63555;49.920;17.868;2023-06-14T17:40:30;11.17;;;5.17;;
69910;SDS011;63555;49.920;17.868;2023-06-14T17:45:31;7.33;;;4.20;;
69910;SDS011;63555;49.920;17.868;2023-06-14T17:50:31;9.67;;;4.37;;
69910;SDS011;63555;49.920;17.868;2023-06-14T17:55:34;6.77;;;3.47;;
69910;SDS011;63555;49.920;17.868;2023-06-14T18:00:34;8.60;;;4.17;;
69910;SDS011;63555;49.920;17.868;2023-06-14T18:05:34;10.47;;;4.50;;
69910;SDS011;63555;49.920;17.868;2023-06-14T18:10:37;8.13;;;4.45;;
69910;SDS011;63555;49.920;17.868;2023-06-14T18:15:38;8.65;;;4.68;;
69910;SDS011;63555;49.920;17.868;2023-06-14T18:20:38;7.00;;;4.17;;
69910;SDS011;63555;49.920;17.868;2023-06-14T18:25:38;6.43;;;4.20;;
69910;SDS011;63555;49.920;17.868;2023-06-14T18:30:39;8.80;;;4.50;;
69910;SDS011;63555;49.920;17.868;2023-06-14T18:35:39;7.05;;;3.83;;
69910;SDS011;63555;49.920;17.868;2023-06-14T18:40:39;7.33;;;4.23;;
69910;SDS011;63555;49.920;17.868;2023-06-14T18:45:40;7.32;;;3.80;;
69910;SDS011;63555;49.920;17.868;2023-06-14T18:50:40;6.65;;;3.38;;
69910;SDS011;63555;49.920;17.868;2023-06-14T18:55:41;6.47;;;3.10;;
69910;SDS011;63555;49.920;17.868;2023-06-14T19:00:45;8.23;;;2.97;;
69910;SDS011;63555;49.920;17.868;2023-06-14T19:05:49;5.72;;;3.05;;
69910;SDS011;63555;49.920;17.868;2023-06-14T19:10:51;5.53;;;3.30;;
69910;SDS011;63555;49.920;17.868;2023-06-14T19:15:51;7.87;;;3.60;;
69910;SDS011;63555;49.920;17.868;2023-06-14T19:20:53;7.35;;;3.25;;
69910;SDS011;63555;49.920;17.868;2023-06-14T19:25:53;6.03;;;3.33;;
69910;SDS011;63555;49.920;17.868;2023-06-14T19:30:53;8.07;;;3.53;;
69910;SDS011;63555;49.920;17.868;2023-06-14T19:35:54;8.23;;;3.03;;
69910;SDS011;63555;49.920;17.868;2023-06-14T19:40:55;6.07;;;2.85;;
69910;SDS011;63555;49.920;17.868;2023-06-14T19:45:55;5.53;;;2.87;;
69910;SDS011;63555;49.920;17.868;2023-06-14T19:50:56;7.23;;;3.37;;
69910;SDS011;63555;49.920;17.868;2023-06-14T19:55:56;4.63;;;2.57;;
69910;SDS011;63555;49.920;17.868;2023-06-14T20:00:56;5.40;;;3.07;;
69910;SDS011;63555;49.920;17.868;2023-06-14T20:05:57;5.80;;;3.20;;
69910;SDS011;63555;49.920;17.868;2023-06-14T20:10:57;5.40;;;2.80;;
69910;SDS011;63555;49.920;17.868;2023-06-14T20:15:57;6.63;;;3.20;;
69910;SDS011;63555;49.920;17.868;2023-06-14T20:20:58;6.13;;;3.20;;
69910;SDS011;63555;49.920;17.868;2023-06-14T20:25:58;7.80;;;3.57;;
69910;SDS011;63555;49.920;17.868;2023-06-14T20:30:59;8.53;;;3.50;;
69910;SDS011;63555;49.920;17.868;2023-06-14T20:35:59;6.83;;;3.77;;
69910;SDS011;63555;49.920;17.868;2023-06-14T20:40:59;7.07;;;3.70;;
69910;SDS011;63555;49.920;17.868;2023-06-14T20:46:00;7.20;;;4.33;;
69910;SDS011;63555;49.920;17.868;2023-06-14T20:51:00;7.20;;;4.33;;
69910;SDS011;63555;49.920;17.868;2023-06-14T20:56:00;11.37;;;4.83;;
69910;SDS011;63555;49.920;17.868;2023-06-14T21:01:01;8.03;;;4.20;;
69910;SDS011;63555;49.920;17.868;2023-06-14T21:06:01;10.00;;;4.17;;
69910;SDS011;63555;49.920;17.868;2023-06-14T21:11:04;9.10;;;4.40;;
69910;SDS011;63555;49.920;17.868;2023-06-14T21:16:05;9.25;;;4.72;;
69910;SDS011;63555;49.920;17.868;2023-06-14T21:21:05;10.57;;;4.43;;
69910;SDS011;63555;49.920;17.868;2023-06-14T21:26:05;9.05;;;5.00;;
69910;SDS011;63555;49.920;17.868;2023-06-14T21:31:06;7.37;;;4.20;;
69910;SDS011;63555;49.920;17.868;2023-06-14T21:36:07;8.77;;;4.65;;
69910;SDS011;63555;49.920;17.868;2023-06-14T21:41:08;9.57;;;4.23;;
69910;SDS011;63555;49.920;17.868;2023-06-14T21:46:09;7.53;;;4.28;;
69910;SDS011;63555;49.920;17.868;2023-06-14T21:51:10;8.93;;;4.30;;
69910;SDS011;63555;49.920;17.868;2023-06-14T21:56:10;8.73;;;4.10;;
69910;SDS011;63555;49.920;17.868;2023-06-14T22:01:11;8.27;;;4.33;;
69910;SDS011;63555;49.920;17.868;2023-06-14T22:06:11;8.80;;;4.27;;
69910;SDS011;63555;49.920;17.868;2023-06-14T22:11:12;9.03;;;4.00;;
69910;SDS011;63555;49.920;17.868;2023-06-14T22:16:13;6.97;;;3.50;;
69910;SDS011;63555;49.920;17.868;2023-06-14T22:21:13;7.50;;;3.77;;
69910;SDS011;63555;49.920;17.868;2023-06-14T22:26:14;6.13;;;3.33;;
69910;SDS011;63555;49.920;17.868;2023-06-14T22:31:16;8.52;;;3.85;;
69910;SDS011;63555;49.920;17.868;2023-06-14T22:36:17;8.77;;;3.67;;
69910;SDS011;63555;49.920;17.868;2023-06-14T22:41:17;6.27;;;3.77;;
69910;SDS011;63555;49.920;17.868;2023-06-14T22:46:18;7.63;;;3.40;;
69910;SDS011;63555;49.920;17.868;2023-06-14T22:51:23;7.18;;;3.80;;
69910;SDS011;63555;49.920;17.868;2023-06-14T22:56:25;6.90;;;3.60;;
69910;SDS011;63555;49.920;17.868;2023-06-14T23:01:25;6.87;;;3.70;;
69910;SDS011;63555;49.920;17.868;2023-06-14T23:06:27;6.57;;;3.55;;
69910;SDS011;63555;49.920;17.868;2023-06-14T23:11:28;10.23;;;3.90;;
69910;SDS011;63555;49.920;17.868;2023-06-14T23:16:28;7.45;;;3.80;;
69910;SDS011;63555;49.920;17.868;2023-06-14T23:21:29;7.85;;;4.28;;
69910;SDS011;63555;49.920;17.868;2023-06-14T23:26:29;6.18;;;3.53;;
69910;SDS011;63555;49.920;17.868;2023-06-14T23:31:30;7.17;;;3.80;;
69910;SDS011;63555;49.920;17.868;2023-06-14T23:36:33;7.60;;;3.65;;
69910;SDS011;63555;49.920;17.868;2023-06-14T23:41:34;7.17;;;3.33;;
69910;SDS011;63555;49.920;17.868;2023-06-14T23:46:35;7.93;;;3.55;;
69910;SDS011;63555;49.920;17.868;2023-06-14T23:51:35;7.20;;;3.80;;
69910;SDS011;63555;49.920;17.868;2023-06-14T23:56:38;7.47;;;3.88;;
